createdAt,value
2022-10-13T00:08:56.648Z,20.15
2022-10-13T00:14:01.599Z,13.90
2022-10-13T00:19:06.328Z,19.08
2022-10-13T00:24:12.133Z,20.08
2022-10-13T00:29:14.919Z,16.20
2022-10-13T00:39:21.639Z,21.33
2022-10-13T00:49:59.247Z,23.60
2022-10-13T00:55:04.252Z,26.70
2022-10-13T01:00:08.607Z,18.00
2022-10-13T01:05:12.873Z,21.10
2022-10-13T01:10:24.609Z,20.40
2022-10-13T01:15:33.284Z,20.40
2022-10-13T01:20:51.561Z,18.40
2022-10-13T01:26:24.825Z,23.40
2022-10-13T01:31:36.369Z,19.75
2022-10-13T01:36:49.677Z,23.65
2022-10-13T01:41:56.750Z,26.17
2022-10-13T01:47:03.461Z,23.67
2022-10-13T01:52:17.383Z,21.55
2022-10-13T01:57:34.635Z,23.58
2022-10-13T02:02:46.172Z,25.65
2022-10-13T02:07:55.332Z,18.85
2022-10-13T02:13:05.104Z,19.05
2022-10-13T02:18:11.408Z,18.20
2022-10-13T02:23:17.201Z,22.15
2022-10-13T02:28:20.835Z,16.40
2022-10-13T02:33:25.048Z,20.33
2022-10-13T02:38:27.824Z,23.63
2022-10-13T02:43:30.689Z,21.10
2022-10-13T02:48:34.792Z,17.00
2022-10-13T02:53:37.559Z,21.38
2022-10-13T03:03:44.731Z,15.90
2022-10-13T03:08:47.485Z,22.23
2022-10-13T03:20:19.934Z,22.58
2022-10-13T03:25:22.873Z,20.52
2022-10-13T03:30:26.546Z,23.83
2022-10-13T03:35:30.598Z,17.75
2022-10-13T03:40:33.383Z,25.35
2022-10-13T03:50:39.886Z,24.03
2022-10-13T03:55:42.630Z,23.17
2022-10-13T04:05:49.232Z,20.80
2022-10-13T04:10:59.873Z,20.63
2022-10-13T04:16:03.575Z,20.75
2022-10-13T04:21:10.291Z,24.55
2022-10-13T04:26:18.280Z,24.85
2022-10-13T04:31:22.749Z,22.17
2022-10-13T04:36:27.670Z,23.20
2022-10-13T04:41:30.476Z,30.15
2022-10-13T04:46:33.188Z,30.30
2022-10-13T04:51:37.300Z,20.98
2022-10-13T04:56:40.047Z,22.25
2022-10-13T05:07:16.069Z,23.92
2022-10-13T05:12:13.383Z,24.95
2022-10-13T05:22:20.258Z,20.75
2022-10-13T05:27:23.395Z,29.58
2022-10-13T05:37:30.156Z,22.15
2022-10-13T05:42:33.312Z,23.42
2022-10-13T05:47:36.383Z,23.40
2022-10-13T05:52:40.696Z,25.55
2022-10-13T05:57:46.648Z,26.95
2022-10-13T06:02:55.958Z,33.80
2022-10-13T06:08:01.028Z,25.27
2022-10-13T06:13:03.802Z,23.10
2022-10-13T06:23:12.637Z,22.85
2022-10-13T06:28:15.865Z,30.40
2022-10-13T06:33:18.633Z,23.65
2022-10-13T06:43:32.404Z,19.38
2022-10-13T06:48:39.833Z,17.50
2022-10-13T06:53:44.066Z,27.02
2022-10-13T06:58:46.902Z,22.95
2022-10-13T07:03:50.459Z,20.88
2022-10-13T07:08:58.139Z,22.02
2022-10-13T07:19:08.895Z,18.70
2022-10-13T07:24:15.813Z,18.40
2022-10-13T07:29:18.627Z,16.23
2022-10-13T07:34:21.993Z,17.98
2022-10-13T07:39:26.119Z,21.45
2022-10-13T07:44:28.973Z,26.65
2022-10-13T07:49:31.934Z,27.65
2022-10-13T07:54:36.519Z,23.67
2022-10-13T07:59:40.071Z,25.95
2022-10-13T08:04:45.959Z,26.40
2022-10-13T08:09:50.124Z,23.30
2022-10-13T08:14:52.894Z,22.00
2022-10-13T08:19:56.211Z,23.15
2022-10-13T08:25:03.481Z,22.60
2022-10-13T08:30:07.653Z,24.35
2022-10-13T08:35:12.551Z,23.48
2022-10-13T08:40:20.365Z,23.73
2022-10-13T08:45:42.814Z,15.07
2022-10-13T08:50:48.702Z,19.10
2022-10-13T08:55:57.833Z,16.63
2022-10-13T09:01:13.384Z,14.60
2022-10-13T09:06:21.635Z,11.70
2022-10-13T09:11:28.308Z,14.00
2022-10-13T09:16:35.456Z,16.55
2022-10-13T09:21:40.096Z,22.90
2022-10-13T09:26:45.754Z,12.43
2022-10-13T09:31:48.852Z,15.18
2022-10-13T09:37:00.113Z,12.82
2022-10-13T09:42:23.936Z,14.10
2022-10-13T09:47:28.756Z,15.80
2022-10-13T09:52:31.778Z,13.88
2022-10-13T09:57:43.613Z,13.98
2022-10-13T10:02:53.519Z,19.05
2022-10-13T10:08:01.689Z,15.40
2022-10-13T10:13:11.798Z,17.30
2022-10-13T10:18:20.144Z,12.98
2022-10-13T10:23:33.763Z,16.02
2022-10-13T10:28:58.512Z,16.05
2022-10-13T10:34:15.483Z,15.05
2022-10-13T10:39:24.412Z,14.40
2022-10-13T10:44:31.857Z,17.02
2022-10-13T10:49:36.463Z,17.38
2022-10-13T10:54:48.388Z,19.30
2022-10-13T11:00:00.760Z,13.32
2022-10-13T11:05:06.386Z,15.93
2022-10-13T11:10:21.977Z,14.90
2022-10-13T11:15:31.097Z,15.90
2022-10-13T11:20:58.357Z,15.45
2022-10-13T11:26:21.101Z,17.83
2022-10-13T11:31:33.466Z,12.30
2022-10-13T11:36:47.240Z,14.02
2022-10-13T11:41:58.469Z,12.45
2022-10-13T11:47:12.928Z,18.80
2022-10-13T11:52:46.354Z,14.38
2022-10-13T11:57:49.191Z,17.27
2022-10-13T12:02:54.597Z,15.27
2022-10-13T12:08:01.964Z,16.65
2022-10-13T12:13:05.166Z,10.73
2022-10-13T12:18:23.538Z,9.75
2022-10-13T12:23:29.756Z,15.52
2022-10-13T12:28:49.502Z,11.25
2022-10-13T12:33:58.376Z,12.73
2022-10-13T12:39:04.833Z,16.50
2022-10-13T12:44:12.661Z,13.10
2022-10-13T12:49:22.533Z,10.50
2022-10-13T12:54:29.853Z,14.98
2022-10-13T12:59:34.717Z,11.70
2022-10-13T13:04:44.677Z,11.82
2022-10-13T13:10:02.097Z,9.80
2022-10-13T13:15:20.905Z,7.88
2022-10-13T13:20:29.096Z,10.50
2022-10-13T13:25:31.905Z,8.60
2022-10-13T13:30:35.457Z,9.13
2022-10-13T13:35:39.625Z,7.75
2022-10-13T13:40:42.477Z,13.82
2022-10-13T13:45:48.421Z,8.85
2022-10-13T13:50:52.556Z,10.95
2022-10-13T13:55:55.340Z,10.73
2022-10-13T14:01:00.292Z,12.55
2022-10-13T14:06:04.507Z,7.40
2022-10-13T14:11:07.810Z,7.85
2022-10-13T14:16:16.105Z,7.22
2022-10-13T14:21:20.210Z,7.40
2022-10-13T14:26:23.818Z,10.65
2022-10-13T14:31:26.631Z,7.88
2022-10-13T14:36:30.776Z,9.80
2022-10-13T14:41:33.583Z,7.65
2022-10-13T14:46:36.354Z,8.13
2022-10-13T14:51:40.593Z,8.35
2022-10-13T14:56:44.555Z,6.32
2022-10-13T15:01:49.229Z,8.07
2022-10-13T15:06:53.541Z,8.75
2022-10-13T15:11:56.344Z,8.10
2022-10-13T15:16:59.146Z,6.68
2022-10-13T15:22:03.561Z,9.00
2022-10-13T15:27:06.398Z,10.02
2022-10-13T15:32:11.632Z,6.13
2022-10-13T15:37:15.829Z,10.55
2022-10-13T15:42:19.052Z,10.48
2022-10-13T15:47:21.955Z,8.20
2022-10-13T15:52:28.682Z,7.43
2022-10-13T15:57:35.081Z,7.60
2022-10-13T16:02:37.844Z,11.93
2022-10-13T16:07:42.351Z,11.25
2022-10-13T16:12:49.398Z,13.50
2022-10-13T16:17:53.248Z,15.48
2022-10-13T16:22:57.434Z,12.77
2022-10-13T16:28:00.774Z,17.20
2022-10-13T16:33:04.038Z,14.00
2022-10-13T16:38:08.159Z,14.65
2022-10-13T16:43:10.903Z,18.17
2022-10-13T16:48:14.975Z,17.13
2022-10-13T16:53:19.378Z,20.40
2022-10-13T16:58:22.101Z,21.90
2022-10-13T17:03:24.888Z,20.60
2022-10-13T17:08:29.082Z,27.25
2022-10-13T17:13:35.213Z,25.83
2022-10-13T17:18:37.944Z,23.50
2022-10-13T17:23:47.351Z,27.48
2022-10-13T17:28:51.371Z,24.58
2022-10-13T17:33:54.601Z,24.40
2022-10-13T17:39:04.068Z,29.40
2022-10-13T17:44:06.840Z,31.25
2022-10-13T17:49:12.546Z,26.30
2022-10-13T17:54:16.973Z,29.17
2022-10-13T17:59:20.018Z,29.08
2022-10-13T18:04:23.654Z,31.45
2022-10-13T18:09:27.948Z,35.13
2022-10-13T18:14:30.740Z,31.52
2022-10-13T18:19:37.816Z,32.40
2022-10-13T18:24:44.286Z,29.88
2022-10-13T18:29:47.024Z,33.17
2022-10-13T18:34:49.745Z,35.65
2022-10-13T18:39:53.824Z,34.83
2022-10-13T18:44:56.535Z,27.85
2022-10-13T18:49:59.311Z,30.90
2022-10-13T18:55:03.469Z,31.15
2022-10-13T19:00:08.604Z,31.75
2022-10-13T19:05:11.340Z,28.50
2022-10-13T19:10:15.547Z,27.02
2022-10-13T19:15:18.516Z,29.73
2022-10-13T19:20:21.257Z,32.33
2022-10-13T19:25:26.399Z,25.38
2022-10-13T19:30:29.225Z,27.08
2022-10-13T19:35:32.132Z,30.08
2022-10-13T19:40:41.490Z,28.15
2022-10-13T19:45:47.268Z,31.50
2022-10-13T19:50:50.749Z,38.10
2022-10-13T19:55:54.888Z,29.58
2022-10-13T20:01:03.057Z,30.15
2022-10-13T20:06:07.172Z,38.35
2022-10-13T20:11:23.038Z,28.65
2022-10-13T20:16:26.852Z,29.50
2022-10-13T20:21:31.160Z,21.90
2022-10-13T20:26:35.302Z,28.67
2022-10-13T20:31:38.135Z,25.98
2022-10-13T20:36:41.694Z,24.08
2022-10-13T20:41:45.978Z,26.08
2022-10-13T20:46:49.853Z,28.85
2022-10-13T20:51:52.605Z,27.70
2022-10-13T20:56:57.792Z,22.20
2022-10-13T21:02:00.508Z,22.55
2022-10-13T21:07:03.228Z,26.15
2022-10-13T21:12:08.108Z,28.42
2022-10-13T21:17:10.870Z,26.15
2022-10-13T21:22:13.603Z,29.05
2022-10-13T21:27:17.937Z,32.63
2022-10-13T21:32:20.836Z,32.58
2022-10-13T21:37:24.777Z,36.47
2022-10-13T21:42:30.539Z,31.95
2022-10-13T21:47:34.494Z,34.05
2022-10-13T21:52:37.420Z,37.40
2022-10-13T21:57:41.525Z,34.35
2022-10-13T22:02:44.280Z,34.58
2022-10-13T22:07:47.489Z,35.58
2022-10-13T22:12:51.660Z,36.72
2022-10-13T22:17:54.473Z,35.42
2022-10-13T22:22:57.922Z,38.58
2022-10-13T22:28:02.082Z,36.40
2022-10-13T22:33:05.217Z,37.22
2022-10-13T22:38:09.789Z,33.83
2022-10-13T22:43:14.015Z,40.83
2022-10-13T22:48:16.818Z,37.15
2022-10-13T22:53:19.569Z,37.40
2022-10-13T22:58:23.710Z,37.65
2022-10-13T23:03:28.261Z,39.33
2022-10-13T23:08:35.271Z,39.90
2022-10-13T23:13:39.654Z,40.53
2022-10-13T23:18:42.488Z,45.05
2022-10-13T23:23:57.803Z,42.28
2022-10-13T23:29:01.986Z,45.40
2022-10-13T23:34:04.828Z,52.28
2022-10-13T23:39:08.287Z,56.17
2022-10-13T23:44:12.435Z,54.33
2022-10-13T23:49:15.332Z,59.90
2022-10-13T23:54:18.126Z,59.83
2022-10-13T23:59:22.292Z,59.50
